• Join FlightAware (Why Join?)
  • Login
  • US Flag 
06:11PM EST


 

Airport Tracker/Info


-or-


 

Live Flight TrackerFlight Track Log ✈ SWA419 ✈ 07-Jun-2013 ✈ KATL - KBWI

Flight Track Log - Related Links

Times and Time Zones

All times are in EDT time to prevent confusion due to time zone crossing. See the SWA419 flight status page for this flight to view local times or setup timezone preferences in your user account.

Time Position Orientation Groundspeed Altitude Reporting Facility
EDT Latitude Longitude Course Direction KTS MPH feet Rate Location/Type
09:34AM 33.6167 -84.5000 244° Southwest 210 242 3,200  Level Atlanta TRACON
09:35AM 33.5833 -84.5833 244° Southwest 271 312 5,400 2,520 Climbing Atlanta TRACON
09:36AM 33.5000 -84.5833 180° South 292 336 8,300 2,160 Climbing Atlanta TRACON
09:38AM 33.4578 -84.3550 102° East 343 395 12,600 2,280 Climbing Atlanta Center
09:39AM 33.5019 -84.2406 65° Northeast 363 418 15,900 3,600 Climbing Atlanta Center
09:40AM 33.5606 -84.1486 53° Northeast 346 398 19,800 3,000 Climbing Atlanta Center
09:41AM 33.6253 -84.0514 51° Northeast 353 406 22,000 1,860 Climbing Atlanta Center
09:42AM 33.6919 -83.9564 50° Northeast 366 421 23,600 1,980 Climbing Atlanta Center
09:43AM 33.7567 -83.8589 51° Northeast 372 428 26,000 1,620 Climbing Atlanta Center
09:44AM 33.8169 -83.7736 50° Northeast 372 428 26,900 960 Climbing Atlanta Center
09:45AM 33.8875 -83.6658 52° Northeast 382 440 28,000 1,080 Climbing Atlanta Center
09:46AM 33.9603 -83.5578 51° Northeast 403 464 29,100 960 Climbing Atlanta Center
09:47AM 34.0369 -83.4422 51° Northeast 424 488 30,000 1,260 Climbing Atlanta Center
09:48AM 34.1156 -83.3236 51° Northeast 438 504 31,700 1,500 Climbing Atlanta Center
09:49AM 34.1942 -83.2100 50° Northeast 443 510 33,000 1,140 Climbing Atlanta Center
09:50AM 34.2686 -83.0936 52° Northeast 443 510 34,000 900 Climbing Atlanta Center
09:51AM 34.3553 -82.9669 50° Northeast 443 510 34,900 960 Climbing Atlanta Center
09:52AM 34.4314 -82.8500 52° Northeast 443 510 36,000 660 Climbing Atlanta Center
09:53AM 34.5053 -82.7331 53° Northeast 437 503 36,300 300 Climbing Atlanta Center
09:54AM 34.5853 -82.6133 51° Northeast 442 509 36,700 300 Climbing Atlanta Center
09:55AM 34.6572 -82.5083 50° Northeast 448 516 37,000 120 Climbing Atlanta Center
09:56AM 34.7389 -82.3856 51° Northeast 454 522 37,000  Level Atlanta Center
09:57AM 34.8186 -82.2625 52° Northeast 459 528 37,000  Level Atlanta Center
09:58AM 34.8983 -82.1419 51° Northeast 453 521 37,000  Level Atlanta Center
09:59AM 34.9736 -82.0261 52° Northeast 442 509 37,000  Level Atlanta Center
10:00AM 35.0486 -81.9025 53° Northeast 447 514 37,000  Level Atlanta Center
10:01AM 35.1214 -81.7636 57° Northeast 447 514 37,000  Level Atlanta Center
10:02AM 35.1878 -81.6397 57° Northeast 447 514 37,000  Level Atlanta Center
10:03AM 35.2542 -81.5106 58° Northeast 442 509 37,000  Level Atlanta Center
10:04AM 35.3203 -81.3839 57° Northeast 442 509 37,000  Level Atlanta Center
10:05AM 35.3842 -81.2569 58° Northeast 442 509 37,000  Level Atlanta Center
10:06AM 35.4542 -81.1194 58° Northeast 449 517 37,000  Level Atlanta Center
10:07AM 35.5258 -80.9842 57° Northeast 463 533 37,000  Level Atlanta Center
10:08AM 35.5956 -80.8514 57° Northeast 463 533 37,000  Level Atlanta Center
10:09AM 35.6650 -80.7158 58° Northeast 463 533 37,000  Level Atlanta Center
10:10AM 35.7344 -80.5878 56° Northeast 463 533 37,000  Level Atlanta Center
10:11AM 35.8033 -80.4492 58° Northeast 463 533 37,000  Level Atlanta Center
10:14AM 35.9719 -80.1269 57° Northeast 467 537 37,000  Level Washington Center
10:15AM 36.0478 -79.9978 54° Northeast 467 537 37,000  Level Washington Center
10:16AM 36.1258 -79.8608 55° Northeast 477 549 37,000 -120 Level Washington Center
10:17AM 36.2039 -79.7208 55° Northeast 482 555 36,800 -720 Descending Washington Center
10:18AM 36.2881 -79.5708 55° Northeast 482 555 35,700 -1,020 Descending Washington Center
10:19AM 36.3611 -79.4456 54° Northeast 488 562 34,800 -960 Descending Washington Center
10:20AM 36.4433 -79.2842 58° Northeast 488 562 33,800 -1,140 Descending Washington Center
10:21AM 36.5183 -79.1483 55° Northeast 488 562 32,500 -1,320 Descending Washington Center
10:22AM 36.5931 -79.0247 53° Northeast 488 562 31,200 -1,200 Descending Washington Center
10:23AM 36.6681 -78.8806 57° Northeast 488 562 30,200 -1,140 Descending Washington Center
10:24AM 36.7425 -78.7439 56° Northeast 483 556 29,000 -600 Descending Washington Center
10:25AM 36.8150 -78.6092 56° Northeast 472 543 29,000 -360 Level Washington Center
10:26AM 36.8806 -78.4872 56° Northeast 472 543 28,300 -720 Descending Washington Center
10:27AM 36.9742 -78.3164 56° Northeast 477 549 27,700 -900 Descending Washington Center
10:28AM 37.0503 -78.1811 55° Northeast 484 557 26,600 -1,020 Descending Washington Center
10:29AM 37.1503 -78.0933 35° Northeast 473 544 25,700 -900 Descending Washington Center
10:30AM 37.2667 -78.0058 31° Northeast 467 537 24,800 -900 Descending Washington Center
10:31AM 37.3831 -77.9181 31° Northeast 479 551 23,900 -960 Descending Washington Center
10:32AM 37.4997 -77.8272 32° Northeast 485 558 22,900 -960 Descending Washington Center
10:33AM 37.6158 -77.7392 31° Northeast 485 558 22,000 -1,020 Descending Washington Center
10:34AM 37.7303 -77.6478 32° Northeast 485 558 20,900 -1,080 Descending Washington Center
10:35AM 37.8422 -77.5614 31° Northeast 485 558 19,900 -1,140 Descending Washington Center
10:36AM 37.9647 -77.4644 32° Northeast 473 544 18,700 -1,140 Descending Washington Center
10:37AM 38.0700 -77.3881 30° Northeast 452 520 17,700 -1,020 Descending Washington Center
10:38AM 38.1756 -77.3008 33° Northeast 446 513 16,700 -1,020 Descending Washington Center
10:39AM 38.2789 -77.2211 31° Northeast 440 506 15,700 -840 Descending Washington Center
10:40AM 38.3781 -77.1383 33° Northeast 430 495 15,100 -660 Descending Washington Center
10:41AM 38.4583 -77.0447 42° Northeast 413 475 14,500 -1,620 Descending Washington Center
10:42AM 38.5367 -76.9481 44° Northeast 401 461 11,900 -2,040 Descending Washington Center
10:43AM 38.6106 -76.8617 42° Northeast 373 429 10,400 -1,080 Descending Washington Center
10:44AM 38.6719 -76.7856 44° Northeast 336 387 9,800 -720 Descending Washington Center
10:45AM 38.7228 -76.7067 50° Northeast 300 345 9,000 -1,140 Descending Washington Center
10:46AM 38.7611 -76.6167 61° Northeast 289 333 7,500 -1,620 Descending Washington Center
10:46AM 38.7833 -76.5667 60° Northeast 285 328 6,700 -1,560 Descending Potomac TRACON
10:47AM 38.8333 -76.5167 38° Northeast 298 343 5,400 -1,260 Descending Potomac TRACON
10:48AM 38.9167 -76.5167 360° North 280 322 4,200 -960 Descending Potomac TRACON
10:49AM 39.0000 -76.5167 360° North 263 303 3,500 -660 Descending Potomac TRACON
10:50AM 39.0500 -76.5667 322° Northwest 249 287 3,000 -1,020 Descending Potomac TRACON
10:51AM 39.1000 -76.6000 333° Northwest 218 251 1,600 -1,200 Descending Potomac TRACON
10:52AM 39.1500 -76.6500 322° Northwest 156 180 700 -900 Descending Potomac TRACON
10:54AM 39.1667 -76.6667 339° North  Level FlightAware Approximate
11:01AM 39.1754 -76.6683 339° North  Level Estimated
11:02AM 39.1754 -76.6683 339° North  Level Estimated
11:03AM 39.1754 -76.6683 339° North  Level Estimated
11:04AM 39.1754 -76.6683 339° North  Level Estimated